sensor_id;sensor_type;location;lat;lon;timestamp;temperature;humidity
17715;DHT22;8977;50.902;4.314;2024-01-07T00:01:50;8.60;99.90
17715;DHT22;8977;50.902;4.314;2024-01-07T00:04:18;8.60;99.90
17715;DHT22;8977;50.902;4.314;2024-01-07T00:06:46;8.60;99.90
17715;DHT22;8977;50.902;4.314;2024-01-07T00:09:14;8.60;99.90
17715;DHT22;8977;50.902;4.314;2024-01-07T00:11:41;8.60;99.90
17715;DHT22;8977;50.902;4.314;2024-01-07T00:14:08;8.60;99.90
17715;DHT22;8977;50.902;4.314;2024-01-07T00:16:35;8.60;99.90
17715;DHT22;8977;50.902;4.314;2024-01-07T00:19:01;8.60;99.90
17715;DHT22;8977;50.902;4.314;2024-01-07T00:21:30;8.60;99.90
17715;DHT22;8977;50.902;4.314;2024-01-07T00:23:57;8.50;99.90
17715;DHT22;8977;50.902;4.314;2024-01-07T00:26:23;8.60;99.90
17715;DHT22;8977;50.902;4.314;2024-01-07T00:28:50;8.60;99.90
17715;DHT22;8977;50.902;4.314;2024-01-07T00:31:17;8.50;99.90
17715;DHT22;8977;50.902;4.314;2024-01-07T00:33:46;8.60;99.90
17715;DHT22;8977;50.902;4.314;2024-01-07T00:36:13;8.60;99.90
17715;DHT22;8977;50.902;4.314;2024-01-07T00:38:41;8.70;99.90
17715;DHT22;8977;50.902;4.314;2024-01-07T00:41:08;8.60;99.90
17715;DHT22;8977;50.902;4.314;2024-01-07T00:43:35;8.60;99.90
17715;DHT22;8977;50.902;4.314;2024-01-07T00:46:02;8.60;99.90
17715;DHT22;8977;50.902;4.314;2024-01-07T00:48:29;8.70;99.90
17715;DHT22;8977;50.902;4.314;2024-01-07T00:50:56;8.70;99.90
17715;DHT22;8977;50.902;4.314;2024-01-07T00:53:23;8.70;99.90
17715;DHT22;8977;50.902;4.314;2024-01-07T00:55:51;8.70;99.90
17715;DHT22;8977;50.902;4.314;2024-01-07T00:58:18;8.70;99.90
17715;DHT22;8977;50.902;4.314;2024-01-07T01:00:45;8.70;99.90
17715;DHT22;8977;50.902;4.314;2024-01-07T01:03:12;8.70;99.90
17715;DHT22;8977;50.902;4.314;2024-01-07T01:05:39;8.70;99.90
17715;DHT22;8977;50.902;4.314;2024-01-07T01:08:06;8.70;99.90
17715;DHT22;8977;50.902;4.314;2024-01-07T01:10:33;8.70;99.90
17715;DHT22;8977;50.902;4.314;2024-01-07T01:13:03;8.70;99.90
17715;DHT22;8977;50.902;4.314;2024-01-07T01:15:31;8.80;99.90
17715;DHT22;8977;50.902;4.314;2024-01-07T01:17:58;8.70;99.90
17715;DHT22;8977;50.902;4.314;2024-01-07T01:20:25;8.70;99.90
17715;DHT22;8977;50.902;4.314;2024-01-07T01:22:52;8.70;99.90
17715;DHT22;8977;50.902;4.314;2024-01-07T01:25:19;8.70;99.90
17715;DHT22;8977;50.902;4.314;2024-01-07T01:27:46;8.60;99.90
17715;DHT22;8977;50.902;4.314;2024-01-07T01:30:14;8.60;99.90
17715;DHT22;8977;50.902;4.314;2024-01-07T01:32:42;8.60;99.90
17715;DHT22;8977;50.902;4.314;2024-01-07T01:35:16;8.60;99.90
17715;DHT22;8977;50.902;4.314;2024-01-07T01:37:43;8.70;99.90
17715;DHT22;8977;50.902;4.314;2024-01-07T01:40:11;8.70;99.90
17715;DHT22;8977;50.902;4.314;2024-01-07T01:42:38;8.60;99.90
17715;DHT22;8977;50.902;4.314;2024-01-07T01:45:13;8.60;99.90
17715;DHT22;8977;50.902;4.314;2024-01-07T01:47:40;8.60;99.90
17715;DHT22;8977;50.902;4.314;2024-01-07T01:50:08;8.60;99.90
17715;DHT22;8977;50.902;4.314;2024-01-07T01:52:44;8.70;99.90
17715;DHT22;8977;50.902;4.314;2024-01-07T01:55:12;8.70;99.90
17715;DHT22;8977;50.902;4.314;2024-01-07T01:57:40;8.70;99.90
17715;DHT22;8977;50.902;4.314;2024-01-07T02:00:08;8.70;99.90
17715;DHT22;8977;50.902;4.314;2024-01-07T02:02:36;8.60;99.90
17715;DHT22;8977;50.902;4.314;2024-01-07T02:05:04;8.60;99.90
17715;DHT22;8977;50.902;4.314;2024-01-07T02:07:31;8.60;99.90
17715;DHT22;8977;50.902;4.314;2024-01-07T02:09:59;8.60;99.90
17715;DHT22;8977;50.902;4.314;2024-01-07T02:12:26;8.50;99.90
17715;DHT22;8977;50.902;4.314;2024-01-07T02:14:56;8.60;99.90
17715;DHT22;8977;50.902;4.314;2024-01-07T02:17:23;8.60;99.90
17715;DHT22;8977;50.902;4.314;2024-01-07T02:19:52;8.60;99.90
17715;DHT22;8977;50.902;4.314;2024-01-07T02:22:24;8.50;99.90
17715;DHT22;8977;50.902;4.314;2024-01-07T02:24:52;8.50;99.90
17715;DHT22;8977;50.902;4.314;2024-01-07T02:27:20;8.50;99.90
17715;DHT22;8977;50.902;4.314;2024-01-07T02:29:47;8.40;99.90
17715;DHT22;8977;50.902;4.314;2024-01-07T02:32:14;8.50;99.90
17715;DHT22;8977;50.902;4.314;2024-01-07T02:34:41;8.50;99.90
17715;DHT22;8977;50.902;4.314;2024-01-07T02:37:08;8.40;99.90
17715;DHT22;8977;50.902;4.314;2024-01-07T02:39:35;8.40;99.90
17715;DHT22;8977;50.902;4.314;2024-01-07T02:42:03;8.30;99.90
17715;DHT22;8977;50.902;4.314;2024-01-07T02:44:31;8.30;99.90
17715;DHT22;8977;50.902;4.314;2024-01-07T02:46:59;8.30;99.90
17715;DHT22;8977;50.902;4.314;2024-01-07T02:49:26;8.30;99.90
17715;DHT22;8977;50.902;4.314;2024-01-07T02:51:52;8.30;99.90
17715;DHT22;8977;50.902;4.314;2024-01-07T02:54:19;8.30;99.90
17715;DHT22;8977;50.902;4.314;2024-01-07T02:56:46;8.20;99.90
17715;DHT22;8977;50.902;4.314;2024-01-07T02:59:15;8.20;99.90
17715;DHT22;8977;50.902;4.314;2024-01-07T03:01:42;8.10;99.90
17715;DHT22;8977;50.902;4.314;2024-01-07T03:04:12;8.20;99.90
17715;DHT22;8977;50.902;4.314;2024-01-07T03:06:40;8.20;99.90
17715;DHT22;8977;50.902;4.314;2024-01-07T03:09:08;8.20;99.90
17715;DHT22;8977;50.902;4.314;2024-01-07T03:11:39;8.20;99.90
17715;DHT22;8977;50.902;4.314;2024-01-07T03:14:07;8.20;99.90
17715;DHT22;8977;50.902;4.314;2024-01-07T03:16:36;8.20;99.90
17715;DHT22;8977;50.902;4.314;2024-01-07T03:19:04;8.20;99.90
17715;DHT22;8977;50.902;4.314;2024-01-07T03:21:32;8.20;99.90
17715;DHT22;8977;50.902;4.314;2024-01-07T03:23:59;8.30;99.90
17715;DHT22;8977;50.902;4.314;2024-01-07T03:26:29;8.30;99.90
17715;DHT22;8977;50.902;4.314;2024-01-07T03:28:58;8.30;99.90
17715;DHT22;8977;50.902;4.314;2024-01-07T03:31:26;8.30;99.90
17715;DHT22;8977;50.902;4.314;2024-01-07T03:33:55;8.30;99.90
17715;DHT22;8977;50.902;4.314;2024-01-07T03:36:27;8.20;99.90
17715;DHT22;8977;50.902;4.314;2024-01-07T03:38:54;8.20;99.90
17715;DHT22;8977;50.902;4.314;2024-01-07T03:41:22;8.30;99.90
17715;DHT22;8977;50.902;4.314;2024-01-07T03:43:49;8.30;99.90
17715;DHT22;8977;50.902;4.314;2024-01-07T03:46:17;8.20;99.90
17715;DHT22;8977;50.902;4.314;2024-01-07T03:48:45;8.10;99.90
17715;DHT22;8977;50.902;4.314;2024-01-07T03:51:34;8.20;99.90
17715;DHT22;8977;50.902;4.314;2024-01-07T03:54:01;8.10;99.90
17715;DHT22;8977;50.902;4.314;2024-01-07T03:56:28;8.20;99.90
17715;DHT22;8977;50.902;4.314;2024-01-07T03:58:55;8.20;99.90
17715;DHT22;8977;50.902;4.314;2024-01-07T04:01:22;8.20;99.90
17715;DHT22;8977;50.902;4.314;2024-01-07T04:03:49;8.20;99.90
17715;DHT22;8977;50.902;4.314;2024-01-07T04:06:16;8.20;99.90
17715;DHT22;8977;50.902;4.314;2024-01-07T04:08:45;8.20;99.90
17715;DHT22;8977;50.902;4.314;2024-01-07T04:11:14;8.20;99.90
17715;DHT22;8977;50.902;4.314;2024-01-07T04:13:42;8.10;99.90
17715;DHT22;8977;50.902;4.314;2024-01-07T04:16:16;8.10;99.90
17715;DHT22;8977;50.902;4.314;2024-01-07T04:18:43;8.20;99.90
17715;DHT22;8977;50.902;4.314;2024-01-07T04:21:13;8.20;99.90
17715;DHT22;8977;50.902;4.314;2024-01-07T04:23:41;8.20;99.90
17715;DHT22;8977;50.902;4.314;2024-01-07T04:26:12;8.00;99.90
17715;DHT22;8977;50.902;4.314;2024-01-07T04:28:41;7.90;99.90
17715;DHT22;8977;50.902;4.314;2024-01-07T04:31:09;8.00;99.90
17715;DHT22;8977;50.902;4.314;2024-01-07T04:33:36;8.00;99.90
17715;DHT22;8977;50.902;4.314;2024-01-07T04:36:04;8.00;99.90
17715;DHT22;8977;50.902;4.314;2024-01-07T04:38:34;8.00;99.90
17715;DHT22;8977;50.902;4.314;2024-01-07T04:41:02;7.90;99.90
17715;DHT22;8977;50.902;4.314;2024-01-07T04:43:30;7.90;99.90
17715;DHT22;8977;50.902;4.314;2024-01-07T04:45:57;8.00;99.90
17715;DHT22;8977;50.902;4.314;2024-01-07T04:48:25;8.00;99.90
17715;DHT22;8977;50.902;4.314;2024-01-07T04:50:53;8.00;99.90
17715;DHT22;8977;50.902;4.314;2024-01-07T04:53:20;8.10;99.90
17715;DHT22;8977;50.902;4.314;2024-01-07T04:55:47;8.00;99.90
17715;DHT22;8977;50.902;4.314;2024-01-07T04:58:14;7.90;99.90
17715;DHT22;8977;50.902;4.314;2024-01-07T05:00:43;7.90;99.90
17715;DHT22;8977;50.902;4.314;2024-01-07T05:03:10;7.90;99.90
17715;DHT22;8977;50.902;4.314;2024-01-07T05:05:37;7.90;99.90
17715;DHT22;8977;50.902;4.314;2024-01-07T05:08:05;7.90;99.90
17715;DHT22;8977;50.902;4.314;2024-01-07T05:10:35;7.90;99.90
17715;DHT22;8977;50.902;4.314;2024-01-07T05:13:02;8.00;99.90
17715;DHT22;8977;50.902;4.314;2024-01-07T05:15:30;7.90;99.90
17715;DHT22;8977;50.902;4.314;2024-01-07T05:18:00;7.80;99.90
17715;DHT22;8977;50.902;4.314;2024-01-07T05:20:28;7.90;99.90
17715;DHT22;8977;50.902;4.314;2024-01-07T05:22:55;7.90;99.90
17715;DHT22;8977;50.902;4.314;2024-01-07T05:25:21;7.90;99.90
17715;DHT22;8977;50.902;4.314;2024-01-07T05:27:48;7.80;99.90
17715;DHT22;8977;50.902;4.314;2024-01-07T05:30:15;7.90;99.90
17715;DHT22;8977;50.902;4.314;2024-01-07T05:32:44;7.80;99.90
17715;DHT22;8977;50.902;4.314;2024-01-07T05:35:13;7.80;99.90
17715;DHT22;8977;50.902;4.314;2024-01-07T05:37:40;7.80;99.90
17715;DHT22;8977;50.902;4.314;2024-01-07T05:40:08;7.80;99.90
17715;DHT22;8977;50.902;4.314;2024-01-07T05:42:36;7.70;99.90
17715;DHT22;8977;50.902;4.314;2024-01-07T05:45:06;7.70;99.90
17715;DHT22;8977;50.902;4.314;2024-01-07T05:47:33;7.90;99.90
17715;DHT22;8977;50.902;4.314;2024-01-07T05:50:00;7.90;99.90
17715;DHT22;8977;50.902;4.314;2024-01-07T05:52:30;7.90;99.90
17715;DHT22;8977;50.902;4.314;2024-01-07T05:54:57;7.90;99.90
17715;DHT22;8977;50.902;4.314;2024-01-07T05:57:26;7.90;99.90
17715;DHT22;8977;50.902;4.314;2024-01-07T05:59:53;7.90;99.90
17715;DHT22;8977;50.902;4.314;2024-01-07T06:02:20;7.80;99.90
17715;DHT22;8977;50.902;4.314;2024-01-07T06:04:48;7.90;99.90
17715;DHT22;8977;50.902;4.314;2024-01-07T06:07:15;7.80;99.90
17715;DHT22;8977;50.902;4.314;2024-01-07T06:09:47;7.80;99.90
17715;DHT22;8977;50.902;4.314;2024-01-07T06:12:14;7.80;99.90
17715;DHT22;8977;50.902;4.314;2024-01-07T06:14:43;7.70;99.90
17715;DHT22;8977;50.902;4.314;2024-01-07T06:17:11;7.60;99.90
17715;DHT22;8977;50.902;4.314;2024-01-07T06:19:38;7.60;99.90
17715;DHT22;8977;50.902;4.314;2024-01-07T06:22:05;7.80;99.90
17715;DHT22;8977;50.902;4.314;2024-01-07T06:24:32;7.70;99.90
17715;DHT22;8977;50.902;4.314;2024-01-07T06:27:04;7.80;99.90
17715;DHT22;8977;50.902;4.314;2024-01-07T06:29:31;7.70;99.90
17715;DHT22;8977;50.902;4.314;2024-01-07T06:31:57;7.70;99.90
17715;DHT22;8977;50.902;4.314;2024-01-07T06:34:24;7.80;99.90
17715;DHT22;8977;50.902;4.314;2024-01-07T06:36:51;7.90;99.90
17715;DHT22;8977;50.902;4.314;2024-01-07T06:39:18;7.90;99.90
17715;DHT22;8977;50.902;4.314;2024-01-07T06:41:45;7.80;99.90
17715;DHT22;8977;50.902;4.314;2024-01-07T06:44:14;7.80;99.90
17715;DHT22;8977;50.902;4.314;2024-01-07T06:46:42;7.80;99.90
17715;DHT22;8977;50.902;4.314;2024-01-07T06:49:09;7.80;99.90
17715;DHT22;8977;50.902;4.314;2024-01-07T06:54:03;7.70;99.90
17715;DHT22;8977;50.902;4.314;2024-01-07T06:56:30;7.80;99.90
17715;DHT22;8977;50.902;4.314;2024-01-07T06:58:57;7.90;99.90
17715;DHT22;8977;50.902;4.314;2024-01-07T07:01:25;7.80;99.90
17715;DHT22;8977;50.902;4.314;2024-01-07T07:03:52;7.80;99.90
17715;DHT22;8977;50.902;4.314;2024-01-07T07:06:19;7.70;99.90
17715;DHT22;8977;50.902;4.314;2024-01-07T07:08:46;7.80;99.90
17715;DHT22;8977;50.902;4.314;2024-01-07T07:11:13;7.80;99.90
17715;DHT22;8977;50.902;4.314;2024-01-07T07:13:40;7.80;99.90
17715;DHT22;8977;50.902;4.314;2024-01-07T07:16:07;7.80;99.90
17715;DHT22;8977;50.902;4.314;2024-01-07T07:18:38;7.80;99.90
17715;DHT22;8977;50.902;4.314;2024-01-07T07:21:05;7.80;99.90
17715;DHT22;8977;50.902;4.314;2024-01-07T07:23:32;7.90;99.90
17715;DHT22;8977;50.902;4.314;2024-01-07T07:25:59;7.80;99.90
17715;DHT22;8977;50.902;4.314;2024-01-07T07:28:26;7.70;99.90
17715;DHT22;8977;50.902;4.314;2024-01-07T07:30:53;7.70;99.90
17715;DHT22;8977;50.902;4.314;2024-01-07T07:33:26;7.80;99.90
17715;DHT22;8977;50.902;4.314;2024-01-07T07:35:54;7.80;99.90
17715;DHT22;8977;50.902;4.314;2024-01-07T07:38:21;7.80;99.90
17715;DHT22;8977;50.902;4.314;2024-01-07T07:40:50;7.80;99.90
17715;DHT22;8977;50.902;4.314;2024-01-07T07:43:18;7.80;99.90
17715;DHT22;8977;50.902;4.314;2024-01-07T07:45:46;7.70;99.90
17715;DHT22;8977;50.902;4.314;2024-01-07T07:48:13;7.60;99.90
17715;DHT22;8977;50.902;4.314;2024-01-07T07:50:40;7.70;99.90
17715;DHT22;8977;50.902;4.314;2024-01-07T07:53:08;7.60;99.90
17715;DHT22;8977;50.902;4.314;2024-01-07T07:55:35;7.60;99.90
17715;DHT22;8977;50.902;4.314;2024-01-07T07:58:02;7.60;99.90
17715;DHT22;8977;50.902;4.314;2024-01-07T08:00:29;7.70;99.90
17715;DHT22;8977;50.902;4.314;2024-01-07T08:02:56;7.70;99.90
17715;DHT22;8977;50.902;4.314;2024-01-07T08:05:23;7.70;99.90
17715;DHT22;8977;50.902;4.314;2024-01-07T08:07:50;7.80;99.90
17715;DHT22;8977;50.902;4.314;2024-01-07T08:10:18;7.70;99.90
17715;DHT22;8977;50.902;4.314;2024-01-07T08:12:47;7.70;99.90
17715;DHT22;8977;50.902;4.314;2024-01-07T08:15:15;7.60;99.90
17715;DHT22;8977;50.902;4.314;2024-01-07T08:17:42;7.70;99.90
17715;DHT22;8977;50.902;4.314;2024-01-07T08:20:10;7.80;99.90
17715;DHT22;8977;50.902;4.314;2024-01-07T08:22:37;7.80;99.90
17715;DHT22;8977;50.902;4.314;2024-01-07T08:25:05;7.80;99.90
17715;DHT22;8977;50.902;4.314;2024-01-07T08:27:33;7.80;99.90
17715;DHT22;8977;50.902;4.314;2024-01-07T08:30:01;7.80;99.90
17715;DHT22;8977;50.902;4.314;2024-01-07T08:32:28;7.60;99.90
17715;DHT22;8977;50.902;4.314;2024-01-07T08:34:55;7.70;99.90
17715;DHT22;8977;50.902;4.314;2024-01-07T08:37:21;7.70;99.90
17715;DHT22;8977;50.902;4.314;2024-01-07T08:39:50;7.70;99.90
17715;DHT22;8977;50.902;4.314;2024-01-07T08:42:17;7.70;99.90
17715;DHT22;8977;50.902;4.314;2024-01-07T08:44:46;7.70;99.90
17715;DHT22;8977;50.902;4.314;2024-01-07T08:47:14;7.70;99.90
17715;DHT22;8977;50.902;4.314;2024-01-07T08:49:41;7.70;99.90
17715;DHT22;8977;50.902;4.314;2024-01-07T08:52:09;7.70;99.90
17715;DHT22;8977;50.902;4.314;2024-01-07T08:54:36;7.80;99.90
17715;DHT22;8977;50.902;4.314;2024-01-07T08:57:03;7.70;99.90
17715;DHT22;8977;50.902;4.314;2024-01-07T08:59:30;7.70;99.90
17715;DHT22;8977;50.902;4.314;2024-01-07T09:02:07;7.70;99.90
17715;DHT22;8977;50.902;4.314;2024-01-07T09:04:34;7.80;99.90
17715;DHT22;8977;50.902;4.314;2024-01-07T09:07:01;7.70;99.90
17715;DHT22;8977;50.902;4.314;2024-01-07T09:09:30;7.70;99.90
17715;DHT22;8977;50.902;4.314;2024-01-07T09:11:57;7.70;99.90
17715;DHT22;8977;50.902;4.314;2024-01-07T09:14:25;7.60;99.90
17715;DHT22;8977;50.902;4.314;2024-01-07T09:16:52;7.60;99.90
17715;DHT22;8977;50.902;4.314;2024-01-07T09:19:21;7.60;99.90
17715;DHT22;8977;50.902;4.314;2024-01-07T09:21:48;7.70;99.90
17715;DHT22;8977;50.902;4.314;2024-01-07T09:24:15;7.60;99.90
17715;DHT22;8977;50.902;4.314;2024-01-07T09:26:42;7.70;99.90
17715;DHT22;8977;50.902;4.314;2024-01-07T09:29:09;7.70;99.90
17715;DHT22;8977;50.902;4.314;2024-01-07T09:31:38;7.70;99.90
17715;DHT22;8977;50.902;4.314;2024-01-07T09:34:11;7.60;99.90
17715;DHT22;8977;50.902;4.314;2024-01-07T09:36:39;7.60;99.90
17715;DHT22;8977;50.902;4.314;2024-01-07T09:39:06;7.60;99.90
17715;DHT22;8977;50.902;4.314;2024-01-07T09:41:33;7.60;99.90
17715;DHT22;8977;50.902;4.314;2024-01-07T09:44:01;7.60;99.90
17715;DHT22;8977;50.902;4.314;2024-01-07T09:46:29;7.60;99.90
17715;DHT22;8977;50.902;4.314;2024-01-07T09:48:59;7.70;99.90
17715;DHT22;8977;50.902;4.314;2024-01-07T09:51:27;7.60;99.90
17715;DHT22;8977;50.902;4.314;2024-01-07T09:54:02;7.70;99.90
17715;DHT22;8977;50.902;4.314;2024-01-07T09:56:36;7.60;99.90
17715;DHT22;8977;50.902;4.314;2024-01-07T09:59:06;7.60;99.90
17715;DHT22;8977;50.902;4.314;2024-01-07T10:01:34;7.60;99.90
17715;DHT22;8977;50.902;4.314;2024-01-07T10:04:02;7.60;99.90
17715;DHT22;8977;50.902;4.314;2024-01-07T10:06:29;7.60;99.90
17715;DHT22;8977;50.902;4.314;2024-01-07T10:08:57;7.70;99.90
17715;DHT22;8977;50.902;4.314;2024-01-07T10:11:24;7.70;99.90
17715;DHT22;8977;50.902;4.314;2024-01-07T10:13:53;7.70;99.90
17715;DHT22;8977;50.902;4.314;2024-01-07T10:16:20;7.70;99.90
17715;DHT22;8977;50.902;4.314;2024-01-07T10:18:47;7.60;99.90
17715;DHT22;8977;50.902;4.314;2024-01-07T10:21:15;7.60;99.90
17715;DHT22;8977;50.902;4.314;2024-01-07T10:23:43;7.60;99.90
17715;DHT22;8977;50.902;4.314;2024-01-07T10:26:11;7.60;99.90
17715;DHT22;8977;50.902;4.314;2024-01-07T10:28:38;7.50;99.90
17715;DHT22;8977;50.902;4.314;2024-01-07T10:31:06;7.60;99.90
17715;DHT22;8977;50.902;4.314;2024-01-07T10:33:33;7.50;99.90
17715;DHT22;8977;50.902;4.314;2024-01-07T10:36:02;7.50;99.90
17715;DHT22;8977;50.902;4.314;2024-01-07T10:38:32;7.60;99.90
17715;DHT22;8977;50.902;4.314;2024-01-07T10:40:59;7.70;99.90
17715;DHT22;8977;50.902;4.314;2024-01-07T10:43:29;7.60;99.90
17715;DHT22;8977;50.902;4.314;2024-01-07T10:46:00;7.60;99.90
17715;DHT22;8977;50.902;4.314;2024-01-07T10:48:30;7.70;99.90
17715;DHT22;8977;50.902;4.314;2024-01-07T10:50:59;7.70;99.90
17715;DHT22;8977;50.902;4.314;2024-01-07T10:53:30;7.60;99.90
17715;DHT22;8977;50.902;4.314;2024-01-07T10:56:00;7.30;99.90
17715;DHT22;8977;50.902;4.314;2024-01-07T10:58:32;7.30;99.90
17715;DHT22;8977;50.902;4.314;2024-01-07T11:01:00;7.30;99.90
17715;DHT22;8977;50.902;4.314;2024-01-07T11:03:35;7.40;99.90
17715;DHT22;8977;50.902;4.314;2024-01-07T11:06:08;7.40;99.90
17715;DHT22;8977;50.902;4.314;2024-01-07T11:08:41;7.30;99.90
17715;DHT22;8977;50.902;4.314;2024-01-07T11:11:13;7.40;99.90
17715;DHT22;8977;50.902;4.314;2024-01-07T11:13:43;7.40;99.90
17715;DHT22;8977;50.902;4.314;2024-01-07T11:16:12;7.40;99.90
17715;DHT22;8977;50.902;4.314;2024-01-07T11:18:39;7.40;99.90
17715;DHT22;8977;50.902;4.314;2024-01-07T11:21:07;7.40;99.90
17715;DHT22;8977;50.902;4.314;2024-01-07T11:23:35;7.40;99.90
17715;DHT22;8977;50.902;4.314;2024-01-07T11:26:03;7.50;99.90
17715;DHT22;8977;50.902;4.314;2024-01-07T11:28:45;7.40;99.90
17715;DHT22;8977;50.902;4.314;2024-01-07T11:31:12;7.50;99.90
17715;DHT22;8977;50.902;4.314;2024-01-07T11:33:39;7.50;99.90
17715;DHT22;8977;50.902;4.314;2024-01-07T11:36:08;7.50;99.90
17715;DHT22;8977;50.902;4.314;2024-01-07T11:38:37;7.40;99.90
17715;DHT22;8977;50.902;4.314;2024-01-07T11:41:05;7.40;99.90
17715;DHT22;8977;50.902;4.314;2024-01-07T11:43:33;7.50;99.90
17715;DHT22;8977;50.902;4.314;2024-01-07T11:46:01;7.50;99.90
17715;DHT22;8977;50.902;4.314;2024-01-07T11:48:28;7.40;99.90
17715;DHT22;8977;50.902;4.314;2024-01-07T11:50:55;7.40;99.90
17715;DHT22;8977;50.902;4.314;2024-01-07T11:53:22;7.40;99.90
17715;DHT22;8977;50.902;4.314;2024-01-07T11:55:50;7.50;99.90
17715;DHT22;8977;50.902;4.314;2024-01-07T11:58:17;7.50;99.90
17715;DHT22;8977;50.902;4.314;2024-01-07T12:00:44;7.40;99.90
17715;DHT22;8977;50.902;4.314;2024-01-07T12:03:12;7.40;99.90
17715;DHT22;8977;50.902;4.314;2024-01-07T12:05:39;7.50;99.90
17715;DHT22;8977;50.902;4.314;2024-01-07T12:08:06;7.50;99.90
17715;DHT22;8977;50.902;4.314;2024-01-07T12:10:33;7.50;99.90
17715;DHT22;8977;50.902;4.314;2024-01-07T12:13:00;7.40;99.90
17715;DHT22;8977;50.902;4.314;2024-01-07T12:15:29;7.40;99.90
17715;DHT22;8977;50.902;4.314;2024-01-07T12:17:57;7.40;99.90
17715;DHT22;8977;50.902;4.314;2024-01-07T12:20:26;7.30;99.90
17715;DHT22;8977;50.902;4.314;2024-01-07T12:22:56;7.30;99.90
17715;DHT22;8977;50.902;4.314;2024-01-07T12:25:23;7.40;99.90
17715;DHT22;8977;50.902;4.314;2024-01-07T12:27:51;7.30;99.90
17715;DHT22;8977;50.902;4.314;2024-01-07T12:30:24;7.30;99.90
17715;DHT22;8977;50.902;4.314;2024-01-07T12:32:51;7.40;99.90
17715;DHT22;8977;50.902;4.314;2024-01-07T12:35:18;7.30;99.90
17715;DHT22;8977;50.902;4.314;2024-01-07T12:37:47;7.40;99.90
17715;DHT22;8977;50.902;4.314;2024-01-07T12:40:15;7.40;99.90
17715;DHT22;8977;50.902;4.314;2024-01-07T12:42:43;7.30;99.90
17715;DHT22;8977;50.902;4.314;2024-01-07T12:45:12;7.30;99.90
17715;DHT22;8977;50.902;4.314;2024-01-07T12:47:40;7.20;99.90
17715;DHT22;8977;50.902;4.314;2024-01-07T12:50:09;7.20;99.90
17715;DHT22;8977;50.902;4.314;2024-01-07T12:52:37;7.20;99.90
17715;DHT22;8977;50.902;4.314;2024-01-07T12:55:07;7.30;99.90
17715;DHT22;8977;50.902;4.314;2024-01-07T12:57:34;7.30;99.90
17715;DHT22;8977;50.902;4.314;2024-01-07T13:00:04;7.30;99.90
17715;DHT22;8977;50.902;4.314;2024-01-07T13:02:32;7.30;99.90
17715;DHT22;8977;50.902;4.314;2024-01-07T13:05:00;7.30;99.90
17715;DHT22;8977;50.902;4.314;2024-01-07T13:07:28;7.40;99.90
17715;DHT22;8977;50.902;4.314;2024-01-07T13:09:55;7.30;99.90
17715;DHT22;8977;50.902;4.314;2024-01-07T13:12:24;7.30;99.90
17715;DHT22;8977;50.902;4.314;2024-01-07T13:14:51;7.40;99.90
17715;DHT22;8977;50.902;4.314;2024-01-07T13:17:19;7.30;99.90
17715;DHT22;8977;50.902;4.314;2024-01-07T13:19:46;7.30;99.90
17715;DHT22;8977;50.902;4.314;2024-01-07T13:22:13;7.30;99.90
17715;DHT22;8977;50.902;4.314;2024-01-07T13:24:40;7.30;99.90
17715;DHT22;8977;50.902;4.314;2024-01-07T13:27:07;7.30;99.90
17715;DHT22;8977;50.902;4.314;2024-01-07T13:29:36;7.30;99.90
17715;DHT22;8977;50.902;4.314;2024-01-07T13:32:03;7.10;99.90
17715;DHT22;8977;50.902;4.314;2024-01-07T13:34:30;7.20;99.90
17715;DHT22;8977;50.902;4.314;2024-01-07T13:36:57;7.00;99.90
17715;DHT22;8977;50.902;4.314;2024-01-07T13:39:24;7.10;99.90
17715;DHT22;8977;50.902;4.314;2024-01-07T13:41:51;7.20;99.90
17715;DHT22;8977;50.902;4.314;2024-01-07T13:44:19;7.20;99.90
17715;DHT22;8977;50.902;4.314;2024-01-07T13:46:48;7.30;99.90
17715;DHT22;8977;50.902;4.314;2024-01-07T13:49:17;7.30;99.90
17715;DHT22;8977;50.902;4.314;2024-01-07T13:51:44;7.30;99.90
17715;DHT22;8977;50.902;4.314;2024-01-07T13:54:11;7.30;99.90
17715;DHT22;8977;50.902;4.314;2024-01-07T13:56:40;7.20;99.90
17715;DHT22;8977;50.902;4.314;2024-01-07T13:59:08;7.20;99.90
17715;DHT22;8977;50.902;4.314;2024-01-07T14:01:35;7.20;99.90
17715;DHT22;8977;50.902;4.314;2024-01-07T14:04:04;7.30;99.90
17715;DHT22;8977;50.902;4.314;2024-01-07T14:06:31;7.30;99.90
17715;DHT22;8977;50.902;4.314;2024-01-07T14:08:58;7.40;99.90
17715;DHT22;8977;50.902;4.314;2024-01-07T14:11:25;7.30;99.90
17715;DHT22;8977;50.902;4.314;2024-01-07T14:13:53;7.20;99.90
17715;DHT22;8977;50.902;4.314;2024-01-07T14:16:20;7.10;99.90
17715;DHT22;8977;50.902;4.314;2024-01-07T14:18:47;7.20;99.90
17715;DHT22;8977;50.902;4.314;2024-01-07T14:21:15;7.20;99.90
17715;DHT22;8977;50.902;4.314;2024-01-07T14:23:42;7.20;99.90
17715;DHT22;8977;50.902;4.314;2024-01-07T14:26:09;7.30;99.90
17715;DHT22;8977;50.902;4.314;2024-01-07T14:28:36;7.30;99.90
17715;DHT22;8977;50.902;4.314;2024-01-07T14:31:03;7.30;99.90
17715;DHT22;8977;50.902;4.314;2024-01-07T14:33:30;7.30;99.90
17715;DHT22;8977;50.902;4.314;2024-01-07T14:35:57;7.30;99.90
17715;DHT22;8977;50.902;4.314;2024-01-07T14:38:26;7.30;99.90
17715;DHT22;8977;50.902;4.314;2024-01-07T14:40:53;7.20;99.90
17715;DHT22;8977;50.902;4.314;2024-01-07T14:43:21;7.10;99.90
17715;DHT22;8977;50.902;4.314;2024-01-07T14:45:48;7.10;99.90
17715;DHT22;8977;50.902;4.314;2024-01-07T14:48:15;7.10;99.90
17715;DHT22;8977;50.902;4.314;2024-01-07T14:50:42;7.10;99.90
17715;DHT22;8977;50.902;4.314;2024-01-07T14:53:13;7.00;99.90
17715;DHT22;8977;50.902;4.314;2024-01-07T14:55:41;7.10;99.90
17715;DHT22;8977;50.902;4.314;2024-01-07T14:58:08;7.20;99.90
17715;DHT22;8977;50.902;4.314;2024-01-07T15:00:35;7.20;99.90
17715;DHT22;8977;50.902;4.314;2024-01-07T15:03:03;7.10;99.90
17715;DHT22;8977;50.902;4.314;2024-01-07T15:05:30;7.00;99.90
17715;DHT22;8977;50.902;4.314;2024-01-07T15:07:57;7.00;99.90
17715;DHT22;8977;50.902;4.314;2024-01-07T15:10:24;7.00;99.90
17715;DHT22;8977;50.902;4.314;2024-01-07T15:12:52;7.00;99.90
17715;DHT22;8977;50.902;4.314;2024-01-07T15:15:19;7.00;99.90
17715;DHT22;8977;50.902;4.314;2024-01-07T15:17:48;7.10;99.90
17715;DHT22;8977;50.902;4.314;2024-01-07T15:20:15;7.20;99.90
17715;DHT22;8977;50.902;4.314;2024-01-07T15:22:42;7.00;99.90
17715;DHT22;8977;50.902;4.314;2024-01-07T15:25:09;6.90;99.90
17715;DHT22;8977;50.902;4.314;2024-01-07T15:27:36;6.90;99.90
17715;DHT22;8977;50.902;4.314;2024-01-07T15:30:06;6.90;99.90
17715;DHT22;8977;50.902;4.314;2024-01-07T15:32:33;6.80;99.90
17715;DHT22;8977;50.902;4.314;2024-01-07T15:35:00;6.80;99.90
17715;DHT22;8977;50.902;4.314;2024-01-07T15:37:30;6.80;99.90
17715;DHT22;8977;50.902;4.314;2024-01-07T15:39:57;6.80;99.90
17715;DHT22;8977;50.902;4.314;2024-01-07T15:42:24;6.80;99.90
17715;DHT22;8977;50.902;4.314;2024-01-07T15:44:51;6.80;99.90
17715;DHT22;8977;50.902;4.314;2024-01-07T15:47:19;6.90;99.90
17715;DHT22;8977;50.902;4.314;2024-01-07T15:49:46;6.80;99.90
17715;DHT22;8977;50.902;4.314;2024-01-07T15:52:13;6.80;99.90
17715;DHT22;8977;50.902;4.314;2024-01-07T15:54:39;6.90;99.90
17715;DHT22;8977;50.902;4.314;2024-01-07T15:57:07;6.80;99.90
17715;DHT22;8977;50.902;4.314;2024-01-07T15:59:34;6.80;99.90
17715;DHT22;8977;50.902;4.314;2024-01-07T16:02:00;6.80;99.90
17715;DHT22;8977;50.902;4.314;2024-01-07T16:04:29;6.80;99.90
17715;DHT22;8977;50.902;4.314;2024-01-07T16:06:57;6.90;99.90
17715;DHT22;8977;50.902;4.314;2024-01-07T16:09:24;6.70;99.90